createdAt,value
2022-10-16T06:15:21.448Z,7.97
2022-10-16T06:25:21.502Z,7.54
2022-10-16T06:35:21.575Z,11.56
2022-10-16T06:45:21.548Z,11.05
2022-10-16T06:55:21.519Z,13.02
2022-10-16T07:05:21.605Z,13.79
2022-10-16T07:15:21.632Z,13.04
2022-10-16T07:25:21.686Z,16.23
2022-10-16T07:35:21.656Z,16.85
2022-10-16T07:45:21.566Z,13.16
2022-10-16T07:55:21.564Z,14.95
2022-10-16T08:05:21.600Z,15.09
2022-10-16T08:15:21.593Z,15.71
2022-10-16T08:25:21.670Z,17.85
2022-10-16T08:35:21.755Z,20.51
2022-10-16T08:45:22.050Z,21.02
2022-10-16T08:55:22.026Z,16.73
2022-10-16T09:05:22.100Z,21.59
2022-10-16T09:15:22.085Z,21.55
2022-10-16T09:25:22.028Z,17.93
2022-10-16T09:35:22.155Z,16.92
2022-10-16T09:45:22.097Z,17.13
2022-10-16T09:55:21.964Z,16.94
2022-10-16T10:05:22.056Z,15.20
2022-10-16T10:15:22.166Z,17.27
2022-10-16T10:25:22.233Z,13.66
2022-10-16T10:35:22.095Z,14.96
2022-10-16T10:45:21.976Z,16.54
2022-10-16T10:55:22.097Z,16.39
2022-10-16T11:05:22.105Z,15.59
2022-10-16T11:15:22.052Z,15.92
2022-10-16T11:25:22.149Z,15.27
2022-10-16T11:35:22.098Z,16.75
2022-10-16T11:45:21.986Z,17.11
2022-10-16T11:55:22.132Z,16.99
2022-10-16T12:05:22.109Z,19.12
2022-10-16T12:15:35.171Z,18.57
2022-10-16T12:25:22.277Z,16.75
2022-10-16T12:35:22.297Z,18.35
2022-10-16T12:45:22.214Z,18.04
2022-10-16T12:55:23.112Z,15.74
2022-10-16T13:05:22.126Z,13.17
2022-10-16T13:15:22.397Z,2.87
2022-10-16T13:25:22.330Z,0.00
2022-10-16T13:35:22.263Z,0.00
2022-10-16T13:45:22.248Z,4.79
2022-10-16T13:55:22.386Z,5.83
2022-10-16T14:05:22.364Z,0.00
2022-10-16T14:15:22.445Z,0.00
2022-10-16T14:25:22.199Z,0.00
2022-10-16T14:35:22.384Z,0.00
2022-10-16T14:45:22.249Z,0.00
2022-10-16T15:05:22.399Z,1.31
2022-10-16T15:15:22.429Z,8.20
2022-10-16T15:25:22.410Z,6.19
2022-10-16T15:35:22.480Z,6.63
2022-10-16T15:45:22.532Z,4.79
2022-10-16T15:55:22.518Z,3.86
2022-10-16T16:05:22.439Z,3.68
2022-10-16T16:15:22.529Z,1.22
2022-10-16T16:25:22.431Z,1.53
2022-10-16T16:35:22.454Z,2.06
2022-10-16T16:45:22.533Z,0.03
2022-10-16T16:55:22.521Z,0.24
2022-10-16T17:05:22.579Z,0.31
2022-10-16T17:15:22.461Z,0.17
2022-10-16T17:25:24.974Z,1.86
2022-10-16T17:35:22.621Z,0.03
2022-10-16T17:45:22.549Z,0.94
2022-10-16T17:55:26.401Z,0.50
2022-10-16T18:05:22.716Z,3.58
2022-10-16T18:15:22.622Z,2.91
2022-10-16T18:25:22.558Z,0.05
2022-10-16T18:35:22.672Z,0.00
2022-10-16T18:45:22.587Z,2.68
2022-10-16T18:55:22.594Z,2.09
2022-10-16T19:05:22.666Z,0.00
2022-10-16T19:15:22.694Z,0.00
